createdAt,value
2023-03-21T00:00:33.619Z,100494.16
2023-03-21T00:03:00.158Z,100494.28
2023-03-21T00:05:26.770Z,100488.09
2023-03-21T00:07:53.149Z,100484.50
2023-03-21T00:10:33.032Z,100480.94
2023-03-21T00:13:05.583Z,100472.38
2023-03-21T00:15:42.660Z,100472.19
2023-03-21T00:18:15.842Z,100470.31
2023-03-21T00:20:47.254Z,100469.41
2023-03-21T00:23:13.604Z,100463.09
2023-03-21T00:25:40.300Z,100463.06
2023-03-21T00:28:08.620Z,100468.28
2023-03-21T00:30:35.329Z,100466.84
2023-03-21T00:33:12.060Z,100462.31
2023-03-21T00:36:06.252Z,100456.88
2023-03-21T00:38:34.090Z,100460.44
2023-03-21T00:41:11.024Z,100466.44
2023-03-21T00:43:43.992Z,100459.69
2023-03-21T00:46:10.626Z,100460.03
2023-03-21T00:48:37.132Z,100455.50
2023-03-21T00:51:13.310Z,100456.34
2023-03-21T00:53:39.676Z,100458.91
2023-03-21T00:56:06.271Z,100448.19
2023-03-21T00:58:32.811Z,100439.44
2023-03-21T01:00:59.332Z,100442.97
2023-03-21T01:03:26.680Z,100448.53
2023-03-21T01:06:04.220Z,100442.22
2023-03-21T01:08:50.543Z,100434.34
2023-03-21T01:11:20.617Z,100434.19
2023-03-21T01:14:04.064Z,100432.47
2023-03-21T01:16:34.708Z,100428.66
2023-03-21T01:19:04.768Z,100421.59
2023-03-21T01:21:32.136Z,100421.06
2023-03-21T01:23:58.630Z,100418.38
2023-03-21T01:26:25.712Z,100417.44
2023-03-21T01:28:52.075Z,100421.91
2023-03-21T01:31:18.768Z,100428.31
2023-03-21T01:33:45.400Z,100430.69
2023-03-21T01:36:16.596Z,100421.97
2023-03-21T01:38:43.725Z,100425.59
2023-03-21T01:41:47.254Z,100421.31
2023-03-21T01:44:19.114Z,100424.63
2023-03-21T01:47:07.758Z,100415.63
2023-03-21T01:49:46.155Z,100418.50
2023-03-21T01:52:26.487Z,100410.66
2023-03-21T01:54:57.522Z,100407.09
2023-03-21T01:57:45.210Z,100406.53
2023-03-21T02:00:16.627Z,100408.59
2023-03-21T02:02:52.608Z,100403.94
2023-03-21T02:05:30.011Z,100399.44
2023-03-21T02:07:56.887Z,100401.19
2023-03-21T02:10:23.705Z,100401.06
2023-03-21T02:12:50.213Z,100398.41
2023-03-21T02:15:16.745Z,100394.34
2023-03-21T02:18:09.333Z,100390.63
2023-03-21T02:20:58.470Z,100386.19
2023-03-21T02:23:55.747Z,100385.59
2023-03-21T02:26:45.116Z,100376.63
2023-03-21T02:29:23.206Z,100382.41
2023-03-21T02:32:22.642Z,100373.59
2023-03-21T02:35:21.758Z,100378.16
2023-03-21T02:38:18.172Z,100375.81
2023-03-21T02:41:05.357Z,100364.91
2023-03-21T02:43:48.659Z,100358.28
2023-03-21T02:46:44.173Z,100362.66
2023-03-21T02:49:30.925Z,100355.00
2023-03-21T02:52:05.411Z,100364.78
2023-03-21T02:54:48.395Z,100358.63
2023-03-21T02:57:19.263Z,100358.13
2023-03-21T02:59:54.559Z,100359.84
2023-03-21T03:02:28.531Z,100356.31
2023-03-21T03:04:55.623Z,100360.91
2023-03-21T03:07:41.532Z,100352.94
2023-03-21T03:10:23.280Z,100352.94
2023-03-21T03:13:07.883Z,100348.13
2023-03-21T03:15:53.087Z,100347.84
2023-03-21T03:18:37.630Z,100353.16
2023-03-21T03:21:31.663Z,100344.19
2023-03-21T03:24:03.871Z,100342.41
2023-03-21T03:27:02.069Z,100342.41
2023-03-21T03:29:31.992Z,100336.25
2023-03-21T03:32:25.522Z,100332.09
2023-03-21T03:34:56.555Z,100338.84
2023-03-21T03:37:31.503Z,100337.69
2023-03-21T03:40:08.975Z,100340.00
2023-03-21T03:42:40.496Z,100339.22
2023-03-21T03:45:09.612Z,100340.88
2023-03-21T03:47:56.042Z,100338.22
2023-03-21T03:50:48.194Z,100345.97
2023-03-21T03:53:23.316Z,100343.53
2023-03-21T03:55:53.425Z,100347.72
2023-03-21T03:58:24.781Z,100347.75
2023-03-21T04:00:57.000Z,100358.47
2023-03-21T04:03:24.544Z,100355.75
2023-03-21T04:05:50.987Z,100356.81
2023-03-21T04:08:17.584Z,100354.16
2023-03-21T04:10:44.541Z,100350.88
2023-03-21T04:13:11.365Z,100347.16
2023-03-21T04:15:37.967Z,100357.63
2023-03-21T04:18:04.559Z,100353.81
2023-03-21T04:20:43.298Z,100351.31
2023-03-21T04:23:09.923Z,100352.28
2023-03-21T04:25:42.308Z,100352.19
2023-03-21T04:28:14.183Z,100351.44
2023-03-21T04:30:43.388Z,100349.09
2023-03-21T04:33:15.743Z,100349.09
2023-03-21T04:35:42.613Z,100357.72
2023-03-21T04:38:09.073Z,100353.06
2023-03-21T04:40:35.835Z,100344.41
2023-03-21T04:43:02.459Z,100333.91
2023-03-21T04:45:28.889Z,100340.38
2023-03-21T04:47:56.642Z,100343.63
2023-03-21T04:50:23.206Z,100342.63
2023-03-21T04:52:49.673Z,100338.97
2023-03-21T04:55:16.169Z,100339.00
2023-03-21T04:57:42.620Z,100331.91
2023-03-21T05:00:10.385Z,100339.00
2023-03-21T05:02:38.465Z,100334.69
2023-03-21T05:05:05.454Z,100336.31
2023-03-21T05:07:32.758Z,100336.59
2023-03-21T05:10:01.314Z,100327.84
2023-03-21T05:12:28.818Z,100327.03
2023-03-21T05:14:55.260Z,100334.94
2023-03-21T05:17:24.877Z,100326.00
2023-03-21T05:19:52.830Z,100325.81
2023-03-21T05:22:20.476Z,100334.53
2023-03-21T05:24:50.251Z,100327.44
2023-03-21T05:27:34.127Z,100319.47
2023-03-21T05:30:07.269Z,100326.34
2023-03-21T05:32:34.308Z,100324.97
2023-03-21T05:35:01.172Z,100325.88
2023-03-21T05:37:28.648Z,100317.09
2023-03-21T05:39:55.307Z,100320.56
2023-03-21T05:42:22.422Z,100327.44
2023-03-21T05:44:48.831Z,100326.75
2023-03-21T05:47:17.549Z,100331.25
2023-03-21T05:49:44.624Z,100333.97
2023-03-21T05:52:11.194Z,100324.19
2023-03-21T05:54:37.584Z,100327.63
2023-03-21T05:57:05.187Z,100326.75
2023-03-21T05:59:31.559Z,100332.97
2023-03-21T06:01:57.930Z,100330.31
2023-03-21T06:04:24.376Z,100339.91
2023-03-21T06:06:52.124Z,100334.66
2023-03-21T06:09:18.546Z,100322.34
2023-03-21T06:11:48.525Z,100330.19
2023-03-21T06:14:15.276Z,100338.88
2023-03-21T06:16:42.237Z,100338.50
2023-03-21T06:19:08.730Z,100337.19
2023-03-21T06:21:35.427Z,100330.78
2023-03-21T06:24:01.928Z,100338.66
2023-03-21T06:26:28.310Z,100333.34
2023-03-21T06:28:54.755Z,100342.19
2023-03-21T06:31:22.741Z,100338.91
2023-03-21T06:33:49.563Z,100344.94
2023-03-21T06:36:16.002Z,100343.09
2023-03-21T06:38:45.348Z,100347.94
2023-03-21T06:41:11.773Z,100349.81
2023-03-21T06:43:38.337Z,100357.81
2023-03-21T06:46:05.617Z,100353.09
2023-03-21T06:48:32.659Z,100345.31
2023-03-21T06:50:59.055Z,100352.19
2023-03-21T06:53:29.946Z,100339.69
2023-03-21T06:55:57.021Z,100347.75
2023-03-21T06:58:23.838Z,100345.75
2023-03-21T07:00:50.323Z,100345.19
2023-03-21T07:03:17.061Z,100343.47
2023-03-21T07:05:43.443Z,100345.38
2023-03-21T07:08:14.061Z,100349.97
2023-03-21T07:10:43.800Z,100345.06
2023-03-21T07:13:12.237Z,100351.81
2023-03-21T07:15:39.277Z,100351.09
2023-03-21T07:18:06.880Z,100349.84
2023-03-21T07:20:33.704Z,100348.97
2023-03-21T07:23:00.803Z,100352.41
2023-03-21T07:25:28.719Z,100354.41
2023-03-21T07:27:55.617Z,100348.97
2023-03-21T07:30:22.124Z,100341.09
2023-03-21T07:32:48.876Z,100354.25
2023-03-21T07:35:17.393Z,100345.63
2023-03-21T07:37:43.865Z,100343.22
2023-03-21T07:40:13.160Z,100347.78
2023-03-21T07:42:40.803Z,100342.16
2023-03-21T07:45:09.060Z,100346.28
2023-03-21T07:47:36.592Z,100346.06
2023-03-21T07:50:04.484Z,100342.78
2023-03-21T07:52:32.171Z,100346.81
2023-03-21T07:54:58.600Z,100341.34
2023-03-21T07:57:25.175Z,100350.81
2023-03-21T07:59:51.633Z,100344.63
2023-03-21T08:02:18.727Z,100348.13
2023-03-21T08:04:45.732Z,100339.81
2023-03-21T08:07:12.445Z,100343.75
2023-03-21T08:09:38.956Z,100344.88
2023-03-21T08:12:08.301Z,100345.03
2023-03-21T08:14:36.759Z,100348.81
2023-03-21T08:17:08.543Z,100352.34
2023-03-21T08:19:35.605Z,100346.91
2023-03-21T08:22:02.293Z,100345.56
2023-03-21T08:24:29.147Z,100341.63
2023-03-21T08:26:55.749Z,100355.00
2023-03-21T08:29:22.875Z,100353.16
2023-03-21T08:31:49.311Z,100345.75
2023-03-21T08:34:17.855Z,100348.41
2023-03-21T08:36:44.250Z,100341.53
2023-03-21T08:39:10.675Z,100351.59
2023-03-21T08:41:38.048Z,100346.56
2023-03-21T08:44:06.268Z,100359.16
2023-03-21T08:46:33.607Z,100354.66
2023-03-21T08:49:00.298Z,100348.34
2023-03-21T08:51:26.970Z,100354.16
2023-03-21T08:53:53.350Z,100354.63
2023-03-21T08:56:19.745Z,100358.81
2023-03-21T08:58:47.336Z,100359.63
2023-03-21T09:01:15.820Z,100354.44
2023-03-21T09:03:43.385Z,100359.16
2023-03-21T09:06:10.757Z,100367.31
2023-03-21T09:08:38.318Z,100369.03
2023-03-21T09:11:05.173Z,100360.47
2023-03-21T09:13:31.553Z,100356.19
2023-03-21T09:16:01.230Z,100353.72
2023-03-21T09:18:38.996Z,100346.94
2023-03-21T09:21:12.786Z,100354.47
2023-03-21T09:23:39.800Z,100349.06
2023-03-21T09:26:07.559Z,100354.56
2023-03-21T09:28:34.953Z,100348.47
2023-03-21T09:31:02.733Z,100356.19
2023-03-21T09:33:29.597Z,100348.50
2023-03-21T09:35:56.951Z,100348.84
2023-03-21T09:38:30.313Z,100347.81
2023-03-21T09:41:39.811Z,100345.03
2023-03-21T09:44:32.233Z,100347.00
2023-03-21T09:47:29.435Z,100355.75
2023-03-21T09:50:13.094Z,100357.06
2023-03-21T09:53:27.058Z,100350.56
2023-03-21T09:55:54.365Z,100353.44
2023-03-21T09:58:30.095Z,100362.13
2023-03-21T10:01:07.471Z,100347.50
2023-03-21T10:03:35.113Z,100356.75
2023-03-21T10:06:05.717Z,100355.81
2023-03-21T10:08:36.566Z,100358.13
2023-03-21T10:11:25.550Z,100349.38
2023-03-21T10:13:57.358Z,100353.56
2023-03-21T10:16:30.909Z,100347.94
2023-03-21T10:18:59.147Z,100344.97
2023-03-21T10:21:56.514Z,100356.69
2023-03-21T10:24:27.514Z,100348.34
2023-03-21T10:26:55.248Z,100356.84
2023-03-21T10:29:26.104Z,100346.31
2023-03-21T10:31:53.873Z,100342.50
2023-03-21T10:34:43.673Z,100335.78
2023-03-21T10:37:12.037Z,100335.78
2023-03-21T10:39:41.105Z,100330.91
2023-03-21T10:42:18.403Z,100334.97
2023-03-21T10:44:49.147Z,100329.88
2023-03-21T10:47:21.739Z,100330.75
2023-03-21T10:52:37.259Z,100323.03
2023-03-21T10:55:40.932Z,100326.56
2023-03-21T10:58:10.917Z,100317.19
2023-03-21T11:00:41.314Z,100316.25
2023-03-21T11:03:21.412Z,100319.16
2023-03-21T11:05:48.950Z,100318.25
2023-03-21T11:08:18.571Z,100314.09
2023-03-21T11:11:06.948Z,100314.28
2023-03-21T11:13:43.800Z,100317.13
2023-03-21T11:16:11.901Z,100311.41
2023-03-21T11:18:44.111Z,100314.81
2023-03-21T11:21:13.261Z,100312.44
2023-03-21T11:23:45.520Z,100313.31
2023-03-21T11:26:18.480Z,100307.41
2023-03-21T11:28:46.632Z,100301.59
2023-03-21T11:31:13.398Z,100308.09
2023-03-21T11:33:45.939Z,100311.47
2023-03-21T11:36:39.959Z,100306.16
2023-03-21T11:39:27.848Z,100317.44
2023-03-21T11:41:54.322Z,100313.44
2023-03-21T11:44:40.912Z,100308.44
2023-03-21T11:47:10.341Z,100302.31
2023-03-21T11:49:37.289Z,100300.31
2023-03-21T11:52:17.848Z,100303.63
2023-03-21T11:55:18.836Z,100283.47
2023-03-21T11:58:05.311Z,100290.38
2023-03-21T12:00:59.623Z,100274.22
2023-03-21T12:03:48.357Z,100281.53
2023-03-21T12:06:37.816Z,100274.84
2023-03-21T12:09:44.827Z,100268.94
2023-03-21T12:12:39.688Z,100271.75
2023-03-21T12:15:18.860Z,100256.34
2023-03-21T12:18:14.544Z,100262.44
2023-03-21T12:20:58.577Z,100270.00
2023-03-21T12:23:42.966Z,100260.06
2023-03-21T12:26:32.532Z,100252.00
2023-03-21T12:29:29.996Z,100252.53
2023-03-21T12:32:10.964Z,100246.69
2023-03-21T12:35:05.205Z,100248.00
2023-03-21T12:38:01.813Z,100243.94
2023-03-21T12:40:49.265Z,100238.09
2023-03-21T12:43:34.026Z,100231.97
2023-03-21T12:46:05.767Z,100224.56
2023-03-21T12:48:47.749Z,100224.25
2023-03-21T12:51:18.046Z,100219.91
2023-03-21T12:53:59.781Z,100230.28
2023-03-21T12:56:52.372Z,100225.41
2023-03-21T12:59:36.755Z,100222.81
2023-03-21T13:02:52.659Z,100219.91
2023-03-21T13:05:27.712Z,100206.75
2023-03-21T13:08:01.192Z,100213.97
2023-03-21T13:10:27.741Z,100198.41
2023-03-21T13:13:22.371Z,100204.69
2023-03-21T13:16:00.339Z,100198.31
2023-03-21T13:18:41.313Z,100192.84
2023-03-21T13:21:17.879Z,100189.38
2023-03-21T13:24:00.738Z,100187.00
2023-03-21T13:26:40.580Z,100181.53
2023-03-21T13:29:26.695Z,100189.31
2023-03-21T13:31:57.562Z,100179.94
2023-03-21T13:34:25.347Z,100177.25
2023-03-21T13:36:52.771Z,100178.94
2023-03-21T13:39:28.560Z,100175.63
2023-03-21T13:42:02.345Z,100174.06
2023-03-21T13:44:39.728Z,100165.44
2023-03-21T13:47:39.375Z,100169.66
2023-03-21T13:50:17.739Z,100166.84
2023-03-21T13:53:11.591Z,100183.50
2023-03-21T13:55:42.571Z,100161.84
2023-03-21T13:58:37.138Z,100161.16
2023-03-21T14:01:03.861Z,100154.72
2023-03-21T14:03:34.034Z,100146.56
2023-03-21T14:06:00.812Z,100133.72
2023-03-21T14:08:37.227Z,100118.00
2023-03-21T14:11:08.204Z,100109.41
2023-03-21T14:13:38.050Z,100108.34
2023-03-21T14:16:15.430Z,100118.81
2023-03-21T14:18:55.205Z,100108.94
2023-03-21T14:21:31.624Z,100101.53
2023-03-21T14:24:06.365Z,100092.53
2023-03-21T14:26:36.052Z,100116.97
2023-03-21T14:29:23.023Z,100141.13
2023-03-21T14:31:52.687Z,100132.97
2023-03-21T14:34:21.988Z,100136.06
2023-03-21T14:36:57.175Z,100131.66
2023-03-21T14:39:28.925Z,100121.03
2023-03-21T14:42:01.028Z,100109.13
2023-03-21T14:44:38.062Z,100102.84
2023-03-21T14:47:40.126Z,100103.06
2023-03-21T14:50:10.752Z,100103.53
2023-03-21T14:52:38.636Z,100098.19
2023-03-21T14:55:14.159Z,100100.84
2023-03-21T14:57:40.641Z,100085.53
2023-03-21T15:00:15.914Z,100082.31
2023-03-21T15:02:45.964Z,100070.41
2023-03-21T15:05:18.169Z,100054.31
2023-03-21T15:07:56.773Z,100046.66
2023-03-21T15:10:25.328Z,100075.97
2023-03-21T15:12:58.854Z,100080.72
2023-03-21T15:15:27.675Z,100073.38
2023-03-21T15:17:56.861Z,100079.44
2023-03-21T15:20:28.155Z,100085.00
2023-03-21T15:22:58.036Z,100076.44
2023-03-21T15:25:33.747Z,100075.63
2023-03-21T15:28:00.433Z,100080.97
2023-03-21T15:30:30.282Z,100084.22
2023-03-21T15:32:58.065Z,100091.13
2023-03-21T15:35:35.010Z,100081.81
2023-03-21T15:38:01.638Z,100080.00
2023-03-21T15:40:30.645Z,100085.72
2023-03-21T15:43:16.160Z,100090.34
2023-03-21T15:45:51.324Z,100081.56
2023-03-21T15:48:24.881Z,100081.63
2023-03-21T15:51:06.719Z,100067.16
2023-03-21T15:53:36.081Z,100059.56
2023-03-21T15:56:06.053Z,100067.22
2023-03-21T15:58:41.455Z,100066.00
2023-03-21T16:01:14.933Z,100069.81
2023-03-21T16:04:13.244Z,100061.28
2023-03-21T16:07:02.148Z,100067.88
2023-03-21T16:09:39.596Z,100057.38
2023-03-21T16:12:11.030Z,100065.22
2023-03-21T16:14:37.835Z,100059.47
2023-03-21T16:17:27.572Z,100062.94
2023-03-21T16:19:55.279Z,100057.81
2023-03-21T16:22:22.203Z,100061.34
2023-03-21T16:24:48.888Z,100060.66
2023-03-21T16:27:18.759Z,100050.28
2023-03-21T16:29:45.300Z,100054.75
2023-03-21T16:32:17.891Z,100048.59
2023-03-21T16:34:44.659Z,100043.34
2023-03-21T16:37:11.816Z,100051.22
2023-03-21T16:39:38.634Z,100040.84
2023-03-21T16:42:05.727Z,100035.28
2023-03-21T16:44:33.737Z,100037.09
2023-03-21T16:47:02.400Z,100037.16
2023-03-21T16:49:28.979Z,100036.56
2023-03-21T16:51:56.981Z,100027.56
2023-03-21T16:54:23.972Z,100027.41
2023-03-21T16:56:52.986Z,100015.00
2023-03-21T16:59:19.972Z,100029.22
2023-03-21T17:01:48.109Z,100025.69
2023-03-21T17:04:16.790Z,100017.53
2023-03-21T17:06:49.303Z,100019.28
2023-03-21T17:09:17.717Z,100022.47
2023-03-21T17:11:44.933Z,100012.78
2023-03-21T17:14:12.718Z,100024.44
2023-03-21T17:16:43.265Z,100015.69
2023-03-21T17:19:13.981Z,100022.25
2023-03-21T17:21:40.865Z,100025.06
2023-03-21T17:24:07.556Z,100021.09
2023-03-21T17:26:33.985Z,100014.09
2023-03-21T17:29:00.622Z,100014.09
2023-03-21T17:31:31.607Z,100012.84
2023-03-21T17:33:58.149Z,100017.91
2023-03-21T17:36:33.292Z,100021.91
2023-03-21T17:38:59.990Z,100017.31
2023-03-21T17:41:27.381Z,100028.03
2023-03-21T17:43:55.634Z,100031.31
2023-03-21T17:46:24.836Z,100019.66
2023-03-21T17:48:51.560Z,100024.13
2023-03-21T17:51:18.195Z,100033.53
2023-03-21T17:53:50.656Z,100030.47
2023-03-21T17:56:31.671Z,100043.03
2023-03-21T17:59:03.440Z,100040.25
2023-03-21T18:01:32.975Z,100033.31
2023-03-21T18:04:02.806Z,100036.34
2023-03-21T18:06:29.384Z,100049.91
2023-03-21T18:08:55.876Z,100045.91
2023-03-21T18:11:23.955Z,100043.59
2023-03-21T18:13:50.940Z,100045.75
2023-03-21T18:16:21.335Z,100050.88
2023-03-21T18:18:48.547Z,100045.03
2023-03-21T18:21:18.976Z,100037.66
2023-03-21T18:23:47.479Z,100037.03
2023-03-21T18:26:17.794Z,100029.19
2023-03-21T18:28:44.803Z,100048.47
2023-03-21T18:31:19.563Z,100039.88
2023-03-21T18:33:48.424Z,100041.41
2023-03-21T18:36:24.691Z,100038.34
2023-03-21T18:38:51.890Z,100050.44
2023-03-21T18:41:22.753Z,100052.75
2023-03-21T18:44:12.892Z,100054.66
2023-03-21T18:46:36.723Z,100065.34
2023-03-21T18:49:33.497Z,100065.25
2023-03-21T18:51:50.650Z,100068.25
2023-03-21T18:54:17.130Z,100068.19
2023-03-21T18:59:34.425Z,100070.97
2023-03-21T19:02:02.044Z,100077.91
2023-03-21T19:04:30.516Z,100064.41
2023-03-21T19:06:58.431Z,100065.63
2023-03-21T19:09:29.384Z,100069.56
2023-03-21T19:11:58.153Z,100056.81
2023-03-21T19:14:24.619Z,100062.91
2023-03-21T19:19:38.598Z,100054.66
2023-03-21T19:22:05.165Z,100044.91
2023-03-21T19:24:31.512Z,100047.63
2023-03-21T19:26:57.952Z,100058.19
2023-03-21T19:29:25.142Z,100042.81
2023-03-21T19:31:52.460Z,100063.34
2023-03-21T19:34:19.411Z,100063.66
2023-03-21T19:36:51.541Z,100056.66
2023-03-21T19:39:21.829Z,100061.25
2023-03-21T19:41:48.630Z,100066.75
2023-03-21T19:44:15.386Z,100068.94
2023-03-21T19:46:42.047Z,100064.66
2023-03-21T19:49:08.535Z,100066.56
2023-03-21T19:51:35.685Z,100064.19
2023-03-21T19:54:05.339Z,100064.19
2023-03-21T19:56:32.131Z,100059.38
2023-03-21T19:58:59.267Z,100065.06
2023-03-21T20:01:26.221Z,100059.81
2023-03-21T20:03:52.817Z,100067.41
2023-03-21T20:06:19.901Z,100072.91
2023-03-21T20:11:33.378Z,100086.41
2023-03-21T20:14:01.949Z,100081.16
2023-03-21T20:16:34.280Z,100065.75
2023-03-21T20:19:01.302Z,100070.97
2023-03-21T20:21:34.750Z,100072.91
2023-03-21T20:24:07.005Z,100074.09
2023-03-21T20:26:34.137Z,100080.53
2023-03-21T20:29:37.269Z,100083.41
2023-03-21T20:31:47.396Z,100077.25
2023-03-21T20:34:13.737Z,100072.97
2023-03-21T20:36:42.770Z,100077.25
2023-03-21T20:39:09.713Z,100076.47
2023-03-21T20:41:36.434Z,100070.41
2023-03-21T20:46:50.060Z,100078.34
2023-03-21T20:49:16.744Z,100081.97
2023-03-21T20:54:30.030Z,100071.47
2023-03-21T20:56:57.202Z,100068.78
2023-03-21T20:59:27.714Z,100068.28
2023-03-21T21:01:56.125Z,100070.16
2023-03-21T21:04:42.769Z,100070.91
2023-03-21T21:07:15.666Z,100066.84
2023-03-21T21:09:43.608Z,100072.03
2023-03-21T21:12:11.476Z,100072.97
2023-03-21T21:14:38.859Z,100072.44
2023-03-21T21:17:23.148Z,100083.06
2023-03-21T21:19:52.304Z,100082.22
2023-03-21T21:22:18.990Z,100087.16
2023-03-21T21:24:45.332Z,100086.25
2023-03-21T21:27:11.993Z,100085.09
2023-03-21T21:29:38.674Z,100089.28
2023-03-21T21:32:05.362Z,100084.84
2023-03-21T21:34:32.058Z,100081.47
2023-03-21T21:36:58.775Z,100083.78
2023-03-21T21:39:26.543Z,100088.25
2023-03-21T21:41:53.627Z,100089.84
2023-03-21T21:44:20.253Z,100079.28
2023-03-21T21:46:47.111Z,100075.53
2023-03-21T21:49:13.626Z,100078.13
2023-03-21T21:51:41.786Z,100076.06
2023-03-21T21:54:08.396Z,100074.22
2023-03-21T21:56:36.910Z,100075.19
2023-03-21T21:59:04.350Z,100069.06
2023-03-21T22:01:34.524Z,100073.41
2023-03-21T22:04:07.940Z,100058.97
2023-03-21T22:06:34.741Z,100061.78
2023-03-21T22:09:03.778Z,100062.31
2023-03-21T22:11:30.418Z,100059.13
2023-03-21T22:13:56.925Z,100054.06
2023-03-21T22:16:23.384Z,100057.03
2023-03-21T22:18:49.888Z,100053.69
2023-03-21T22:21:16.460Z,100055.72
2023-03-21T22:23:42.873Z,100047.84
2023-03-21T22:26:10.115Z,100044.53
2023-03-21T22:28:39.698Z,100054.25
2023-03-21T22:31:09.531Z,100045.41
2023-03-21T22:33:35.946Z,100046.28
2023-03-21T22:36:02.983Z,100041.81
2023-03-21T22:38:29.401Z,100051.56
2023-03-21T22:40:58.867Z,100047.25
2023-03-21T22:43:25.800Z,100048.78
2023-03-21T22:45:52.631Z,100044.19
2023-03-21T22:48:19.663Z,100048.47
2023-03-21T22:50:46.179Z,100052.81
2023-03-21T22:53:12.862Z,100048.47
2023-03-21T22:55:39.550Z,100043.28
2023-03-21T22:58:06.407Z,100046.00
2023-03-21T23:00:33.507Z,100048.63
2023-03-21T23:03:00.326Z,100043.44
2023-03-21T23:05:26.724Z,100043.38
2023-03-21T23:07:53.512Z,100043.19
2023-03-21T23:10:19.939Z,100054.38
2023-03-21T23:12:46.439Z,100041.28
2023-03-21T23:15:12.793Z,100049.06
2023-03-21T23:17:39.255Z,100043.09
2023-03-21T23:20:07.769Z,100038.78
2023-03-21T23:22:35.802Z,100037.31
2023-03-21T23:25:02.746Z,100036.03
2023-03-21T23:27:29.217Z,100036.81
2023-03-21T23:29:56.554Z,100035.16
2023-03-21T23:32:23.989Z,100039.59
2023-03-21T23:34:50.610Z,100039.59
2023-03-21T23:37:17.086Z,100039.75
2023-03-21T23:39:45.204Z,100032.88
2023-03-21T23:42:11.775Z,100026.66
2023-03-21T23:44:38.192Z,100026.81
2023-03-21T23:47:04.684Z,100031.13
2023-03-21T23:49:33.545Z,100024.81
2023-03-21T23:51:59.974Z,100033.69
2023-03-21T23:54:26.528Z,100031.50
2023-03-21T23:56:52.937Z,100021.75
2023-03-21T23:59:19.288Z,100021.84
